Time;durP1;ratioP1;P1;durP2;ratioP2;P2;SDS_P1;SDS_P2;PMS_P1;PMS_P2;Temp;Humidity;BMP_temperature;BMP_pressure;BME280_temperature;BME280_humidity;BME280_pressure;Samples;Min_cycle;Max_cycle;Signal;HPM_P1;HPM_P2
2023/02/21 02:13:57;;;;;;;5.03;2.67;;;4.80;99.90;;;;;;6254532;23;20028;-86
2023/02/21 02:17:01;;;;;;;4.10;2.95;;;4.90;99.90;;;;;;6230933;23;20039;-86
2023/02/21 02:19:52;;;;;;;5.97;3.25;;;4.90;99.90;;;;;;6247570;23;20035;-86
2023/02/21 02:23:10;;;;;;;6.40;2.95;;;4.90;99.90;;;;;;6246659;23;20355;-87
2023/02/21 02:26:06;;;;;;;8.13;3.10;;;4.80;99.90;;;;;;6245540;23;20035;-83
2023/02/21 02:29:31;;;;;;;8.52;3.10;;;4.60;99.90;;;;;;6244694;23;20028;-84
2023/02/21 02:32:42;;;;;;;6.40;2.95;;;4.60;99.90;;;;;;6245266;23;20106;-84
2023/02/21 02:36:07;;;;;;;6.20;2.83;;;4.60;99.90;;;;;;6247145;23;20094;-83
2023/02/21 02:39:18;;;;;;;7.72;3.20;;;4.40;99.90;;;;;;6093629;23;20055;-83
2023/02/21 02:42:37;;;;;;;6.78;2.55;;;4.30;99.90;;;;;;6074850;23;20093;-82
2023/02/21 02:45:47;;;;;;;4.40;2.63;;;4.50;99.90;;;;;;6248781;23;20371;-84
2023/02/21 02:48:39;;;;;;;4.50;2.83;;;4.60;99.90;;;;;;6245371;23;20020;-84
2023/02/21 02:51:29;;;;;;;5.60;2.50;;;4.60;99.90;;;;;;6244328;23;20031;-83
2023/02/21 02:54:16;;;;;;;7.82;2.80;;;4.70;99.90;;;;;;6244902;23;20380;-82
2023/02/21 02:57:09;;;;;;;6.03;3.00;;;4.60;99.90;;;;;;6243534;23;20418;-82
2023/02/21 02:59:57;;;;;;;2.63;1.95;;;4.60;99.90;;;;;;6245080;23;20432;-82
2023/02/21 03:03:12;;;;;;;6.80;2.85;;;4.60;99.90;;;;;;6244906;23;20074;-82
2023/02/21 03:06:10;;;;;;;3.90;2.47;;;4.70;99.90;;;;;;6257504;23;20038;-82
2023/02/21 03:09:06;;;;;;;4.40;2.72;;;5.00;99.90;;;;;;6238351;23;20055;-81
2023/02/21 03:12:08;;;;;;;6.75;2.65;;;5.10;99.90;;;;;;6238479;23;20028;-83
2023/02/21 03:15:04;;;;;;;4.78;2.65;;;5.20;99.90;;;;;;6268446;23;20059;-81
2023/02/21 03:18:16;;;;;;;5.35;2.72;;;5.20;99.90;;;;;;6252677;23;20050;-83
2023/02/21 03:21:10;;;;;;;5.07;2.38;;;5.30;99.90;;;;;;6230236;23;20305;-84
2023/02/21 03:24:00;;;;;;;4.65;2.65;;;5.40;99.90;;;;;;6254841;23;20099;-82
2023/02/21 03:26:52;;;;;;;6.80;2.80;;;5.40;99.90;;;;;;6247114;23;20034;-83
2023/02/21 03:29:42;;;;;;;6.68;2.80;;;5.50;99.90;;;;;;6245955;23;20536;-82
2023/02/21 03:32:52;;;;;;;13.75;3.35;;;5.60;99.90;;;;;;6245344;23;20038;-83
2023/02/21 03:35:40;;;;;;;6.38;2.17;;;5.60;99.90;;;;;;6243232;23;20055;-82
2023/02/21 03:38:29;;;;;;;5.00;2.30;;;5.60;99.90;;;;;;6244683;23;20032;-84
2023/02/21 03:41:19;;;;;;;4.90;2.47;;;5.60;99.90;;;;;;6244579;23;20028;-84
2023/02/21 03:44:06;;;;;;;8.18;2.63;;;5.50;99.90;;;;;;6245097;23;20020;-84
2023/02/21 03:46:53;;;;;;;4.97;2.80;;;5.50;99.90;;;;;;6245252;23;20157;-84
2023/02/21 03:49:40;;;;;;;8.05;3.00;;;5.50;99.90;;;;;;6243732;23;20138;-82
2023/02/21 03:52:27;;;;;;;5.60;3.00;;;5.50;99.90;;;;;;6245796;23;20082;-83
2023/02/21 03:55:18;;;;;;;3.78;2.42;;;5.60;99.90;;;;;;6244178;23;20075;-82
2023/02/21 03:58:05;;;;;;;5.47;2.70;;;5.50;99.90;;;;;;6223193;23;20326;-81
2023/02/21 04:00:53;;;;;;;6.18;2.97;;;5.40;99.90;;;;;;6223378;23;20028;-82
2023/02/21 04:03:40;;;;;;;7.82;2.40;;;5.40;99.90;;;;;;6244075;23;20066;-81
2023/02/21 04:06:27;;;;;;;7.53;2.50;;;5.40;99.90;;;;;;6243100;23;20028;-83
2023/02/21 04:09:14;;;;;;;6.85;3.33;;;5.30;99.90;;;;;;6243657;23;20036;-80
2023/02/21 04:12:02;;;;;;;7.75;3.60;;;5.20;99.90;;;;;;6244311;23;20423;-82
2023/02/21 04:14:51;;;;;;;7.65;3.33;;;4.90;99.90;;;;;;6222179;23;20052;-82
2023/02/21 04:17:38;;;;;;;5.70;3.47;;;4.50;99.90;;;;;;6244714;23;20366;-82
2023/02/21 04:20:25;;;;;;;8.32;3.70;;;4.20;99.90;;;;;;6223176;23;20028;-82
2023/02/21 04:23:17;;;;;;;6.45;3.50;;;4.20;99.90;;;;;;6244962;23;20031;-83
2023/02/21 04:26:04;;;;;;;6.75;3.22;;;4.10;99.90;;;;;;6246212;23;20665;-81
2023/02/21 04:28:55;;;;;;;4.85;2.95;;;4.30;99.90;;;;;;6246435;23;20032;-84
2023/02/21 04:31:42;;;;;;;9.20;3.30;;;4.30;99.90;;;;;;6246991;23;20403;-82
2023/02/21 04:34:29;;;;;;;5.90;3.13;;;4.20;99.90;;;;;;6247130;23;20032;-84
2023/02/21 04:37:17;;;;;;;6.53;3.10;;;4.30;99.90;;;;;;6246292;23;20071;-82
2023/02/21 04:40:04;;;;;;;4.70;3.15;;;4.50;99.90;;;;;;6225167;23;20395;-81
2023/02/21 04:42:51;;;;;;;9.27;3.65;;;4.60;99.90;;;;;;6248156;23;20109;-81
2023/02/21 04:45:39;;;;;;;9.35;3.17;;;4.70;99.90;;;;;;6246989;23;20300;-82
2023/02/21 04:48:26;;;;;;;7.60;3.00;;;4.80;99.90;;;;;;6225794;23;20030;-82
2023/02/21 04:51:17;;;;;;;6.18;3.20;;;4.80;99.90;;;;;;6247746;23;20097;-82
2023/02/21 04:54:06;;;;;;;7.68;3.28;;;4.70;99.90;;;;;;6245889;23;20039;-83
2023/02/21 04:56:53;;;;;;;8.43;3.17;;;4.60;99.90;;;;;;6246257;23;20430;-83
2023/02/21 04:59:41;;;;;;;12.77;3.38;;;4.60;99.90;;;;;;6247649;23;20020;-81
2023/02/21 05:02:45;;;;;;;9.07;3.53;;;4.50;99.90;;;;;;6253733;23;20024;-82
2023/02/21 05:05:32;;;;;;;5.43;3.20;;;4.40;99.90;;;;;;6233047;23;20091;-83
2023/02/21 05:08:19;;;;;;;5.65;3.58;;;4.40;99.90;;;;;;6247631;23;20031;-82
2023/02/21 05:11:07;;;;;;;10.95;3.60;;;4.50;99.90;;;;;;6249655;23;20024;-83
2023/02/21 05:14:01;;;;;;;8.23;3.40;;;4.50;99.90;;;;;;6230058;23;20512;-83
2023/02/21 05:16:48;;;;;;;7.57;3.25;;;4.50;99.90;;;;;;6224533;23;20035;-83
2023/02/21 05:19:36;;;;;;;6.28;3.42;;;4.30;99.90;;;;;;6246964;23;20028;-83
2023/02/21 05:22:23;;;;;;;5.40;3.20;;;4.10;99.90;;;;;;6245967;23;20035;-83
2023/02/21 05:25:18;;;;;;;6.07;3.60;;;3.90;99.90;;;;;;6224491;23;20058;-82
2023/02/21 05:28:05;;;;;;;7.78;3.70;;;3.90;99.90;;;;;;6245992;23;20032;-82
2023/02/21 05:30:53;;;;;;;9.68;3.92;;;3.80;99.90;;;;;;6244505;23;20023;-87
2023/02/21 05:33:40;;;;;;;9.73;3.75;;;3.60;99.90;;;;;;6246275;23;20081;-84
2023/02/21 05:36:27;;;;;;;5.18;3.58;;;3.60;99.90;;;;;;6223793;23;20400;-85
2023/02/21 05:39:17;;;;;;;12.00;4.07;;;3.70;99.90;;;;;;6223867;23;20050;-86
2023/02/21 05:42:05;;;;;;;9.98;3.78;;;3.80;99.90;;;;;;6246594;23;20406;-83
2023/02/21 05:44:55;;;;;;;7.65;3.42;;;4.00;99.90;;;;;;6225374;23;20039;-82
2023/02/21 05:47:44;;;;;;;13.52;3.65;;;4.20;99.90;;;;;;6245369;23;20028;-83
2023/02/21 05:50:31;;;;;;;9.35;4.22;;;4.20;99.90;;;;;;6224248;23;20035;-84
2023/02/21 05:53:21;;;;;;;9.25;4.13;;;4.20;99.90;;;;;;6244539;23;20082;-82
2023/02/21 05:56:08;;;;;;;9.55;3.85;;;4.20;99.90;;;;;;6244790;23;20020;-80
2023/02/21 05:58:56;;;;;;;10.60;4.47;;;4.10;99.90;;;;;;6223220;23;20091;-81
2023/02/21 06:01:44;;;;;;;8.40;4.20;;;4.00;99.90;;;;;;6222954;23;20028;-81
2023/02/21 06:04:33;;;;;;;7.10;3.83;;;4.00;99.90;;;;;;6244816;23;20055;-80
2023/02/21 06:07:20;;;;;;;9.70;4.15;;;4.00;99.90;;;;;;6243937;23;20035;-82
2023/02/21 06:10:07;;;;;;;7.03;3.90;;;4.00;99.90;;;;;;6244874;23;20062;-82
2023/02/21 06:12:57;;;;;;;7.05;4.40;;;3.90;99.90;;;;;;6245565;23;20034;-81
2023/02/21 06:15:44;;;;;;;6.75;3.80;;;3.90;99.90;;;;;;6223052;23;20028;-79
2023/02/21 06:18:34;;;;;;;9.15;4.13;;;3.90;99.90;;;;;;6243832;23;20035;-82
2023/02/21 06:21:22;;;;;;;7.20;3.83;;;3.80;99.90;;;;;;6246728;23;20474;-80
2023/02/21 06:24:10;;;;;;;13.48;4.00;;;3.80;99.90;;;;;;6244996;23;20031;-80
2023/02/21 06:27:29;;;;;;;10.75;4.15;;;3.70;99.90;;;;;;6223372;23;20078;-83
2023/02/21 06:30:18;;;;;;;7.25;3.90;;;3.80;1.00;;;;;;6239813;23;20082;-84
2023/02/21 06:33:11;;;;;;;8.80;3.92;;;3.80;1.00;;;;;;6245302;23;20024;-85
2023/02/21 06:36:14;;;;;;;9.35;4.82;;;3.90;1.00;;;;;;6225648;23;20030;-83
2023/02/21 06:39:24;;;;;;;13.13;4.40;;;4.00;1.00;;;;;;6223259;23;20024;-83
2023/02/21 06:43:17;;;;;;;;;;;;;;;;;;;;;
2023/02/21 06:58:56;;;;;;;20.73;5.97;;;4.40;1.00;;;;;;5801865;24;20025;-82
2023/02/21 07:02:21;;;;;;;5.70;3.65;;;4.40;1.00;;;;;;5939888;24;20025;-82
2023/02/21 07:05:12;;;;;;;10.88;4.88;;;4.40;1.00;;;;;;6177551;23;20024;-83
2023/02/21 07:08:00;;;;;;;10.55;4.28;;;4.40;1.00;;;;;;6225820;23;20038;-80
2023/02/21 07:11:09;;;;;;;10.32;4.80;;;4.50;1.00;;;;;;6239431;23;20026;-81
2023/02/21 07:14:03;;;;;;;8.57;4.72;;;4.70;1.00;;;;;;6246302;23;20024;-82
2023/02/21 07:17:19;;;;;;;9.48;4.57;;;4.80;1.00;;;;;;6222498;23;20028;-83
2023/02/21 07:20:14;;;;;;;7.57;4.20;;;5.00;1.00;;;;;;6225089;23;20130;-82
2023/02/21 07:23:02;;;;;;;8.35;4.20;;;5.30;99.90;;;;;;6246162;23;20043;-83
2023/02/21 07:25:50;;;;;;;7.47;4.38;;;5.60;99.90;;;;;;6244731;23;20081;-81
2023/02/21 07:28:37;;;;;;;10.27;4.03;;;6.00;99.90;;;;;;6222348;23;20028;-82
2023/02/21 07:31:24;;;;;;;7.53;4.00;;;6.30;99.90;;;;;;6221932;23;20020;-81
2023/02/21 07:34:22;;;;;;;11.30;4.53;;;6.60;99.90;;;;;;6221661;23;20468;-83
2023/02/21 07:37:14;;;;;;;7.05;4.30;;;7.00;99.90;;;;;;6222732;23;20024;-82
2023/02/21 07:40:03;;;;;;;6.38;4.00;;;7.20;99.90;;;;;;6221929;23;20300;-81
2023/02/21 07:42:56;;;;;;;12.10;4.60;;;7.40;99.90;;;;;;6223622;23;20127;-80
2023/02/21 07:45:44;;;;;;;8.45;4.57;;;7.40;99.90;;;;;;6222871;23;20024;-81
2023/02/21 07:48:33;;;;;;;9.43;4.10;;;7.00;99.90;;;;;;6223333;23;20094;-80
2023/02/21 07:51:27;;;;;;;9.18;4.07;;;7.10;99.90;;;;;;6245490;23;20106;-81
2023/02/21 07:54:16;;;;;;;12.73;4.72;;;7.50;99.90;;;;;;6223032;23;20056;-81
2023/02/21 07:57:11;;;;;;;10.85;4.25;;;7.60;99.90;;;;;;6222350;23;20404;-79
2023/02/21 07:59:59;;;;;;;9.32;4.72;;;7.70;99.90;;;;;;6245318;23;20024;-82
2023/02/21 08:02:47;;;;;;;10.43;4.10;;;8.10;99.90;;;;;;6245410;23;20027;-80
2023/02/21 08:05:35;;;;;;;8.77;3.97;;;8.40;99.90;;;;;;6244966;23;20281;-79
2023/02/21 08:08:26;;;;;;;7.18;3.45;;;8.40;99.90;;;;;;6246565;23;20028;-81
2023/02/21 08:11:18;;;;;;;10.90;4.22;;;8.60;99.90;;;;;;6225650;23;20092;-82
2023/02/21 08:14:08;;;;;;;8.95;3.90;;;8.90;99.90;;;;;;6224949;23;20020;-80
2023/02/21 08:16:55;;;;;;;9.63;4.28;;;9.10;99.90;;;;;;6224065;23;20588;-80
2023/02/21 08:19:42;;;;;;;8.70;3.80;;;9.00;99.90;;;;;;6223077;23;20023;-80
2023/02/21 08:22:33;;;;;;;8.18;3.75;;;9.00;99.90;;;;;;6245952;23;20345;-80
2023/02/21 08:25:23;;;;;;;7.07;3.97;;;9.00;99.90;;;;;;6223898;23;20098;-81
2023/02/21 08:28:11;;;;;;;8.43;3.70;;;8.80;99.90;;;;;;6225287;23;20024;-81
2023/02/21 08:30:58;;;;;;;6.60;3.50;;;9.00;99.90;;;;;;6246399;23;20065;-81
2023/02/21 08:33:46;;;;;;;7.95;3.63;;;9.10;99.90;;;;;;6245758;23;20039;-80
2023/02/21 08:36:43;;;;;;;6.20;3.55;;;9.50;99.90;;;;;;6242102;23;20403;-82
2023/02/21 08:39:34;;;;;;;9.00;3.65;;;9.80;99.90;;;;;;6225652;23;20024;-81
2023/02/21 08:42:23;;;;;;;3.08;2.63;;;10.20;99.90;;;;;;6223662;23;20031;-81
2023/02/21 08:45:17;;;;;;;7.28;3.30;;;10.70;96.50;;;;;;6245426;23;20078;-80
2023/02/21 08:48:07;;;;;;;9.70;3.13;;;10.50;89.10;;;;;;6246018;23;20423;-79
2023/02/21 08:50:55;;;;;;;7.10;3.33;;;10.90;85.50;;;;;;6245817;23;20024;-80
2023/02/21 08:53:45;;;;;;;8.27;3.55;;;11.00;70.70;;;;;;6224637;23;20038;-81
2023/02/21 08:56:33;;;;;;;6.03;3.03;;;11.30;65.00;;;;;;6250056;23;20039;-81
2023/02/21 08:59:20;;;;;;;9.60;3.45;;;11.80;57.70;;;;;;6260429;23;20024;-79
2023/02/21 09:02:19;;;;;;;6.68;3.05;;;12.00;48.10;;;;;;6238898;23;20103;-79
2023/02/21 09:05:17;;;;;;;10.77;3.47;;;12.20;44.50;;;;;;6260685;23;20024;-80
2023/02/21 09:08:08;;;;;;;7.18;2.50;;;12.40;41.80;;;;;;6250337;23;20012;-79
2023/02/21 09:11:00;;;;;;;;;;;12.80;35.40;;;;;;6269914;22;20019;-81
2023/02/21 09:13:48;;;;;;;8.85;3.03;;;12.90;26.80;;;;;;6239882;23;19931;-79
2023/02/21 09:16:38;;;;;;;8.50;3.08;;;12.80;24.50;;;;;;6228668;23;20024;-78
2023/02/21 09:19:25;;;;;;;4.38;2.53;;;12.80;24.10;;;;;;6250394;23;20330;-81
2023/02/21 09:22:13;;;;;;;8.10;2.72;;;13.20;22.00;;;;;;6249814;23;20035;-80
2023/02/21 09:25:11;;;;;;;12.63;3.00;;;13.00;17.50;;;;;;6225215;23;20021;-79
2023/02/21 09:28:02;;;;;;;6.28;2.50;;;13.30;17.30;;;;;;6245789;23;20411;-82
2023/02/21 09:30:49;;;;;;;7.50;2.35;;;14.00;21.60;;;;;;6222563;23;20024;-81
2023/02/21 09:33:40;;;;;;;5.25;2.28;;;14.40;8.00;;;;;;6243672;23;20102;-81
2023/02/21 09:36:30;;;;;;;4.05;1.95;;;15.10;2.60;;;;;;6224081;23;20092;-80
2023/02/21 09:39:18;;;;;;;5.80;2.05;;;15.50;1.00;;;;;;6245074;23;20027;-80
2023/02/21 09:42:13;;;;;;;5.10;1.98;;;15.70;1.00;;;;;;6222317;23;20103;-81
2023/02/21 09:45:03;;;;;;;3.42;1.80;;;16.00;1.00;;;;;;6223600;23;20035;-81
2023/02/21 09:47:57;;;;;;;4.45;1.63;;;16.30;1.00;;;;;;6249407;23;20043;-80
2023/02/21 09:50:54;;;;;;;4.05;2.13;;;16.40;1.00;;;;;;6244657;23;20035;-80
2023/02/21 09:53:47;;;;;;;3.03;1.65;;;16.40;1.00;;;;;;6243555;23;20331;-79
2023/02/21 09:56:39;;;;;;;6.05;1.70;;;17.30;1.00;;;;;;6220455;23;20070;-79
2023/02/21 09:59:30;;;;;;;5.37;1.60;;;16.90;1.00;;;;;;6244689;23;20024;-81
2023/02/21 10:03:18;;;;;;;2.85;1.52;;;17.20;1.00;;;;;;6245943;23;20469;-80
2023/02/21 10:06:42;;;;;;;4.78;1.75;;;17.20;1.00;;;;;;6229012;23;20028;-81
2023/02/21 10:09:51;;;;;;;;;;;17.90;1.00;;;;;;6225754;23;20052;-80
2023/02/21 10:12:53;;;;;;;1.73;1.13;;;17.90;1.00;;;;;;6244985;23;19919;-82
2023/02/21 10:16:00;;;;;;;3.75;1.48;;;17.90;1.00;;;;;;6245459;23;20067;-81
2023/02/21 10:22:49;;;;;;;7.38;1.30;;;18.20;1.00;;;;;;6244790;23;20729;-82
2023/02/21 10:25:43;;;;;;;7.50;1.25;;;18.60;1.00;;;;;;6244230;23;20028;-82
2023/02/21 10:28:40;;;;;;;3.63;1.35;;;18.30;1.00;;;;;;6223629;23;20054;-81
2023/02/21 10:31:35;;;;;;;;;;;18.80;1.00;;;;;;6224598;23;20020;-80
2023/02/21 10:34:30;;;;;;;6.25;1.02;;;19.50;1.00;;;;;;6255398;23;19915;-78
2023/02/21 10:37:38;;;;;;;3.97;0.80;;;19.50;1.00;;;;;;6223433;23;20020;-80
2023/02/21 10:40:40;;;;;;;1.88;0.70;;;19.20;1.00;;;;;;6244792;23;20024;-81
2023/02/21 10:43:51;;;;;;;4.05;0.90;;;19.30;1.00;;;;;;6221921;23;20020;-80
2023/02/21 10:46:44;;;;;;;0.52;0.50;;;19.30;1.00;;;;;;6244826;23;20035;-79
2023/02/21 10:49:49;;;;;;;0.65;0.45;;;19.50;1.00;;;;;;6225630;23;20395;-81
2023/02/21 10:52:49;;;;;;;1.15;0.60;;;19.70;1.00;;;;;;6223446;23;20024;-81
2023/02/21 10:55:36;;;;;;;3.92;0.70;;;19.40;1.00;;;;;;6221051;23;20344;-79
2023/02/21 10:58:30;;;;;;;2.20;0.88;;;19.90;1.00;;;;;;6223252;23;20523;-81
2023/02/21 11:01:32;;;;;;;2.83;0.65;;;20.90;1.00;;;;;;6244329;23;20035;-80
2023/02/21 11:04:19;;;;;;;1.13;0.60;;;21.00;1.00;;;;;;6224186;23;20035;-80
2023/02/21 11:07:14;;;;;;;2.33;0.60;;;20.90;1.00;;;;;;6243885;23;20024;-80
2023/02/21 11:10:22;;;;;;;0.80;0.50;;;21.30;1.00;;;;;;6223880;23;20095;-80
2023/02/21 11:13:20;;;;;;;2.90;0.57;;;21.10;1.00;;;;;;6221640;23;20024;-80
2023/02/21 11:16:17;;;;;;;2.42;0.60;;;21.90;1.00;;;;;;6224963;23;20095;-79
2023/02/21 11:19:06;;;;;;;1.45;0.50;;;22.40;1.00;;;;;;6221423;23;20041;-80
2023/02/21 11:22:03;;;;;;;1.10;0.63;;;22.30;1.00;;;;;;6257431;23;20027;-80
2023/02/21 11:24:59;;;;;;;1.95;0.95;;;21.80;1.00;;;;;;6221835;23;20024;-79
2023/02/21 11:28:07;;;;;;;0.88;0.40;;;21.30;1.00;;;;;;6244170;23;20024;-79
2023/02/21 11:31:00;;;;;;;1.30;0.50;;;21.20;1.00;;;;;;6226133;23;20388;-80
2023/02/21 11:34:18;;;;;;;1.38;0.50;;;21.80;1.00;;;;;;6222424;23;20078;-81
2023/02/21 11:37:25;;;;;;;0.63;0.43;;;22.60;1.00;;;;;;6245001;23;20055;-82
2023/02/21 11:40:48;;;;;;;1.65;0.50;;;23.60;1.00;;;;;;6224398;23;20028;-81
2023/02/21 11:44:11;;;;;;;;;;;;;;;;;;;;;
2023/02/21 11:47:21;;;;;;;1.23;0.40;;;23.40;1.00;;;;;;6243601;23;20442;-81
2023/02/21 11:51:02;;;;;;;1.60;0.60;;;22.90;1.00;;;;;;6180331;23;20024;-81
2023/02/21 11:57:58;;;;;;;1.95;0.40;;;22.10;1.00;;;;;;6093936;23;20084;-83
2023/02/21 12:01:04;;;;;;;2.20;0.43;;;22.10;1.00;;;;;;5999079;23;20158;-80
2023/02/21 12:04:22;;;;;;;4.05;0.60;;;22.20;1.00;;;;;;6105944;23;20028;-82
2023/02/21 12:07:34;;;;;;;0.95;0.40;;;22.10;1.00;;;;;;6223503;23;20497;-81
2023/02/21 12:11:27;;;;;;;;;;;;;;;;;;;;;
2023/02/21 12:15:04;;;;;;;1.58;0.63;;;21.60;1.00;;;;;;6244056;23;20043;-81
2023/02/21 12:22:08;;;;;;;0.40;0.32;;;23.20;1.00;;;;;;6059930;23;20018;-81
2023/02/21 12:25:18;;;;;;;0.93;0.47;;;23.10;1.00;;;;;;6075192;23;20040;-83
2023/02/21 12:28:43;;;;;;;1.73;0.52;;;23.70;1.00;;;;;;6107266;23;20103;-81
2023/02/21 12:31:50;;;;;;;2.83;0.50;;;23.90;1.00;;;;;;6224934;23;20135;-81
2023/02/21 12:35:22;;;;;;;0.50;0.40;;;23.80;1.00;;;;;;6247401;23;20052;-82
2023/02/21 12:39:04;;;;;;;0.50;0.38;;;23.30;1.00;;;;;;6223026;23;20093;-82
2023/02/21 12:42:30;;;;;;;1.25;0.60;;;25.50;1.00;;;;;;6102193;23;20040;-81
2023/02/21 12:45:42;;;;;;;0.45;0.43;;;26.10;1.00;;;;;;6185534;23;20028;-83
2023/02/21 12:48:50;;;;;;;1.67;0.40;;;27.10;1.00;;;;;;6247124;23;20028;-84
2023/02/21 12:52:14;;;;;;;2.65;0.22;;;27.80;1.00;;;;;;6217724;23;20024;-83
2023/02/21 12:59:56;;;;;;;;;;;;;;;;;;;;;
2023/02/21 13:03:29;;;;;;;0.60;0.40;;;27.10;1.00;;;;;;6036743;23;20026;-82
2023/02/21 13:06:35;;;;;;;1.60;0.40;;;28.40;1.00;;;;;;6063005;23;20022;-83
2023/02/21 13:10:05;;;;;;;;;;;;;;;;;;;;;
2023/02/21 13:13:19;;;;;;;0.95;0.32;;;27.40;1.00;;;;;;6153997;23;20030;-81
2023/02/21 13:16:55;;;;;;;0.55;0.20;;;28.00;1.00;;;;;;6067546;23;20055;-82
2023/02/21 13:24:18;;;;;;;0.20;0.20;;;27.80;1.00;;;;;;6130646;23;20017;-81
2023/02/21 13:28:27;;;;;;;;;;;;;;;;;;;;;
2023/02/21 13:31:00;;;;;;;;;;;28.70;1.00;;;;;;6065864;23;20037;-81
2023/02/21 13:34:23;;;;;;;0.95;0.30;;;27.70;1.00;;;;;;6123191;23;20308;-82
2023/02/21 13:37:34;;;;;;;0.93;0.30;;;27.50;1.00;;;;;;6105326;23;20114;-83
2023/02/21 13:41:15;;;;;;;3.03;0.22;;;28.00;1.00;;;;;;6106478;23;20026;-82
2023/02/21 13:44:59;;;;;;;0.82;0.38;;;27.00;1.00;;;;;;6110686;23;20058;-81
2023/02/21 13:47:54;;;;;;;2.20;0.30;;;27.90;1.00;;;;;;6104193;23;20030;-81
2023/02/21 13:51:00;;;;;;;0.35;0.30;;;28.50;1.00;;;;;;6124764;23;20665;-81
2023/02/21 13:54:09;;;;;;;0.93;0.52;;;28.50;1.00;;;;;;6121474;23;20026;-79
2023/02/21 13:56:57;;;;;;;0.88;0.40;;;27.70;1.00;;;;;;6103434;23;20125;-81
2023/02/21 13:59:44;;;;;;;0.80;0.50;;;26.90;1.00;;;;;;6102119;23;20049;-82
2023/02/21 14:02:36;;;;;;;4.00;0.70;;;26.90;1.00;;;;;;6123905;23;20053;-79
2023/02/21 14:05:24;;;;;;;1.85;0.43;;;26.50;1.00;;;;;;6104497;23;20033;-82
2023/02/21 14:08:45;;;;;;;1.65;0.40;;;27.10;1.00;;;;;;6172251;23;20031;-80
2023/02/21 14:11:42;;;;;;;1.10;0.40;;;28.10;1.00;;;;;;6184827;23;20024;-81
2023/02/21 14:14:38;;;;;;;1.23;0.40;;;27.60;1.00;;;;;;6244332;23;20027;-80
2023/02/21 14:17:30;;;;;;;0.57;0.30;;;27.50;1.00;;;;;;6224020;23;20020;-82
2023/02/21 14:20:22;;;;;;;0.90;0.40;;;28.60;1.00;;;;;;6244230;23;20024;-81
2023/02/21 14:23:16;;;;;;;1.85;0.22;;;27.90;1.00;;;;;;6245456;23;20024;-80
2023/02/21 14:26:04;;;;;;;1.20;0.20;;;27.20;1.00;;;;;;6245094;23;20028;-82
2023/02/21 14:28:57;;;;;;;0.95;0.30;;;27.90;1.00;;;;;;6223682;23;20024;-81
2023/02/21 14:32:02;;;;;;;0.70;0.32;;;27.90;1.00;;;;;;6246309;23;20292;-80
2023/02/21 14:34:49;;;;;;;1.20;0.40;;;28.10;1.00;;;;;;6245652;23;20028;-82
2023/02/21 14:37:43;;;;;;;0.43;0.35;;;28.40;1.00;;;;;;6246115;23;20087;-81
2023/02/21 14:40:33;;;;;;;2.45;0.60;;;28.50;1.00;;;;;;6245347;23;20024;-82
2023/02/21 14:43:46;;;;;;;0.82;0.50;;;29.30;1.00;;;;;;6246169;23;20403;-81
2023/02/21 14:47:17;;;;;;;1.08;0.35;;;29.00;1.00;;;;;;6228250;23;20046;-81
2023/02/21 14:50:23;;;;;;;0.30;0.30;;;29.70;1.00;;;;;;6223571;23;20028;-81
2023/02/21 14:53:19;;;;;;;0.68;0.20;;;28.00;1.00;;;;;;6225456;23;20381;-80
2023/02/21 14:56:43;;;;;;;0.60;0.35;;;26.90;1.00;;;;;;6247593;23;20028;-80
2023/02/21 14:59:56;;;;;;;1.75;0.40;;;26.40;1.00;;;;;;6224739;23;20040;-78
2023/02/21 15:03:05;;;;;;;1.05;0.50;;;26.50;1.00;;;;;;6222718;23;20134;-82
2023/02/21 15:05:59;;;;;;;0.80;0.50;;;26.60;1.00;;;;;;6222723;23;20081;-82
2023/02/21 15:08:51;;;;;;;0.70;0.40;;;27.30;1.00;;;;;;6222265;23;20095;-80
2023/02/21 15:11:43;;;;;;;0.30;0.30;;;26.70;1.00;;;;;;6244802;23;20039;-83
2023/02/21 15:14:38;;;;;;;3.00;0.22;;;26.40;1.00;;;;;;6223557;23;20062;-80
2023/02/21 15:17:25;;;;;;;0.77;0.40;;;25.70;1.00;;;;;;6248549;23;20016;-81
2023/02/21 15:20:15;;;;;;;0.80;0.43;;;26.00;1.00;;;;;;6244621;23;20047;-81
2023/02/21 15:23:13;;;;;;;0.68;0.40;;;25.70;1.00;;;;;;6222137;23;20058;-80
2023/02/21 15:26:18;;;;;;;0.50;0.50;;;25.70;1.00;;;;;;6246318;23;20036;-81
2023/02/21 15:29:16;;;;;;;0.93;0.50;;;25.30;1.00;;;;;;6223058;23;20028;-81
2023/02/21 15:32:06;;;;;;;2.42;0.30;;;24.50;1.00;;;;;;6204618;23;20024;-81
2023/02/21 15:34:54;;;;;;;1.17;0.50;;;24.60;1.00;;;;;;6223573;23;20023;-81
2023/02/21 15:37:44;;;;;;;2.00;0.38;;;24.50;1.00;;;;;;6243275;23;20094;-80
2023/02/21 15:40:31;;;;;;;3.63;0.40;;;24.90;1.00;;;;;;6223840;23;20276;-79
2023/02/21 15:43:44;;;;;;;0.52;0.40;;;24.60;1.00;;;;;;6245058;23;20047;-80
2023/02/21 15:46:57;;;;;;;1.70;0.50;;;24.40;1.00;;;;;;6244937;23;20411;-79
2023/02/21 15:50:16;;;;;;;0.55;0.50;;;23.90;1.00;;;;;;6245123;23;20307;-79
2023/02/21 15:53:19;;;;;;;0.45;0.30;;;24.00;1.00;;;;;;6223603;23;20020;-81
2023/02/21 15:56:27;;;;;;;0.32;0.32;;;24.40;1.00;;;;;;6246078;23;20370;-80
2023/02/21 15:59:26;;;;;;;2.83;0.45;;;23.20;1.00;;;;;;6244728;23;20028;-81
2023/02/21 16:02:24;;;;;;;5.93;0.43;;;22.90;1.00;;;;;;6223281;23;20341;-80
2023/02/21 16:05:25;;;;;;;1.55;0.47;;;22.90;1.00;;;;;;6250067;23;20054;-80
2023/02/21 16:08:23;;;;;;;3.05;0.73;;;22.00;1.00;;;;;;6223901;23;20020;-80
2023/02/21 16:11:12;;;;;;;0.63;0.60;;;21.30;1.00;;;;;;6244661;23;20427;-79
2023/02/21 16:14:02;;;;;;;1.85;0.68;;;20.20;1.00;;;;;;6244835;23;20067;-80
2023/02/21 16:17:13;;;;;;;0.82;0.50;;;18.80;1.00;;;;;;6243820;23;20078;-79
2023/02/21 16:20:08;;;;;;;2.30;0.60;;;17.60;1.00;;;;;;6223645;23;20419;-79
2023/02/21 16:23:31;;;;;;;1.33;0.77;;;16.80;1.00;;;;;;6248130;23;20047;-82
2023/02/21 16:26:26;;;;;;;1.92;0.95;;;16.20;1.00;;;;;;6228488;23;20032;-81
2023/02/21 16:29:16;;;;;;;1.17;0.77;;;15.60;1.00;;;;;;6246901;23;20024;-80
2023/02/21 16:32:04;;;;;;;2.47;0.90;;;15.20;1.00;;;;;;6224601;23;20036;-81
2023/02/21 16:34:53;;;;;;;4.43;1.10;;;14.80;1.00;;;;;;6245771;23;20056;-84
2023/02/21 16:37:41;;;;;;;2.20;1.00;;;14.50;1.00;;;;;;6246768;23;20043;-81
2023/02/21 16:40:33;;;;;;;5.00;1.02;;;14.20;1.00;;;;;;6248065;23;20115;-81
2023/02/21 16:43:25;;;;;;;1.63;1.10;;;14.00;1.00;;;;;;6247548;23;20025;-80
2023/02/21 16:46:13;;;;;;;1.17;0.70;;;13.80;1.00;;;;;;6224569;23;20375;-78
2023/02/21 16:49:00;;;;;;;3.65;1.30;;;13.50;1.00;;;;;;6225107;23;20040;-81
2023/02/21 16:51:48;;;;;;;1.88;1.10;;;13.30;1.00;;;;;;6248306;23;20274;-81
2023/02/21 16:54:37;;;;;;;5.72;1.80;;;13.20;1.00;;;;;;6251109;23;20028;-80
2023/02/21 16:57:25;;;;;;;2.08;1.05;;;13.10;1.00;;;;;;6245741;23;20032;-81
2023/02/21 17:00:13;;;;;;;2.80;0.95;;;13.00;1.00;;;;;;6246351;23;20055;-80
2023/02/21 17:03:00;;;;;;;4.03;1.67;;;12.80;1.00;;;;;;6226063;23;20031;-80
2023/02/21 17:05:50;;;;;;;4.05;1.42;;;12.70;1.00;;;;;;6224021;23;20103;-81
2023/02/21 17:08:40;;;;;;;5.38;1.98;;;12.50;1.00;;;;;;6245646;23;20028;-80
2023/02/21 17:11:27;;;;;;;2.80;1.80;;;12.40;1.00;;;;;;6246523;23;20125;-80
2023/02/21 17:14:15;;;;;;;4.07;2.05;;;12.30;1.00;;;;;;6226438;23;20020;-80
2023/02/21 17:17:05;;;;;;;3.15;2.05;;;12.10;1.00;;;;;;6248582;23;20024;-79
2023/02/21 17:19:54;;;;;;;6.97;2.00;;;12.00;1.00;;;;;;6246946;23;20048;-79
2023/02/21 17:22:42;;;;;;;5.90;1.70;;;12.00;1.00;;;;;;6226857;23;20028;-80
2023/02/21 17:25:29;;;;;;;10.45;2.30;;;11.90;1.00;;;;;;6248034;23;20024;-79
2023/02/21 17:28:16;;;;;;;3.72;1.88;;;11.80;1.00;;;;;;6244712;23;20431;-80
2023/02/21 17:31:04;;;;;;;11.00;2.10;;;11.60;1.00;;;;;;6246967;23;20024;-79
2023/02/21 17:33:51;;;;;;;3.65;1.90;;;11.50;1.00;;;;;;6224261;23;20024;-81
2023/02/21 17:36:41;;;;;;;7.20;2.10;;;11.30;1.00;;;;;;6246777;23;20031;-79
2023/02/21 17:39:29;;;;;;;6.00;1.80;;;11.20;1.00;;;;;;6249080;23;20029;-80
2023/02/21 17:42:27;;;;;;;7.97;2.10;;;11.10;1.00;;;;;;6228579;23;20034;-82
2023/02/21 17:45:19;;;;;;;5.03;2.35;;;11.10;1.00;;;;;;6246657;23;20407;-81
2023/02/21 17:48:07;;;;;;;;;;;10.90;1.00;;;;;;6246207;23;20507;-81
2023/02/21 17:50:54;;;;;;;8.35;3.17;;;10.80;1.00;;;;;;6224599;23;19919;-82
2023/02/21 17:53:44;;;;;;;3.97;2.22;;;10.60;1.00;;;;;;6246540;23;20039;-82
2023/02/21 17:56:31;;;;;;;6.70;2.63;;;10.40;1.00;;;;;;6245528;23;20025;-81
2023/02/21 17:59:19;;;;;;;4.72;2.42;;;10.20;1.00;;;;;;6246550;23;20028;-80
2023/02/21 18:02:09;;;;;;;6.18;2.17;;;10.00;1.00;;;;;;6246309;23;20028;-80
2023/02/21 18:04:59;;;;;;;7.40;2.35;;;9.90;1.00;;;;;;6244376;23;20028;-80
2023/02/21 18:07:59;;;;;;;5.78;1.90;;;9.80;1.00;;;;;;6244549;23;20028;-80
2023/02/21 18:10:47;;;;;;;4.13;1.95;;;9.70;1.00;;;;;;6246316;23;20030;-81
2023/02/21 18:13:40;;;;;;;4.00;2.17;;;9.60;1.00;;;;;;6225755;23;20024;-83
2023/02/21 18:16:29;;;;;;;6.38;2.67;;;9.40;1.00;;;;;;6223235;23;20024;-82
2023/02/21 18:19:17;;;;;;;6.68;2.50;;;9.30;1.00;;;;;;6244983;23;20056;-81
2023/02/21 18:22:05;;;;;;;5.72;2.60;;;9.10;1.00;;;;;;6245061;23;20047;-81
2023/02/21 18:24:53;;;;;;;6.03;2.58;;;9.10;1.00;;;;;;6244398;23;20024;-81
2023/02/21 18:27:42;;;;;;;8.00;2.85;;;8.90;5.10;;;;;;6254856;23;20028;-82
2023/02/21 18:30:30;;;;;;;6.00;2.67;;;8.80;16.00;;;;;;6244262;23;20024;-81